Time;durP1;ratioP1;P1;durP2;ratioP2;P2;SDS_P1;SDS_P2;PMS_P1;PMS_P2;Temp;Humidity;BMP_temperature;BMP_pressure;BME280_temperature;BME280_humidity;BME280_pressure;Samples;Min_cycle;Max_cycle;Signal;HPM_P1;HPM_P2
2022/07/21 00:07:27;;;;;;;4.18;3.63;;;;;;;19.53;100.00;101482.53;20966997;28;20054;-75
2022/07/21 00:17:28;;;;;;;3.88;3.40;;;;;;;19.45;100.00;101446.34;20966106;28;20123;-75
2022/07/21 00:27:30;;;;;;;4.25;3.30;;;;;;;19.48;100.00;101436.16;20962799;28;20456;-75
2022/07/21 00:37:32;;;;;;;4.28;3.50;;;;;;;19.52;100.00;101445.69;20963219;28;20127;-75
2022/07/21 00:47:34;;;;;;;4.47;3.63;;;;;;;19.52;100.00;101464.59;20950613;28;20048;-76
2022/07/21 00:57:36;;;;;;;3.58;3.10;;;;;;;19.51;100.00;101479.09;20963836;28;20051;-76
2022/07/21 01:07:40;;;;;;;3.65;3.13;;;;;;;19.51;100.00;101470.13;20964156;28;20139;-76
2022/07/21 01:17:42;;;;;;;4.50;3.50;;;;;;;19.45;100.00;101452.63;20961321;28;20488;-75
2022/07/21 01:27:43;;;;;;;3.85;3.28;;;;;;;19.50;100.00;101446.81;20961016;28;20044;-76
2022/07/21 01:37:46;;;;;;;4.45;3.40;;;;;;;19.50;100.00;101455.78;20871050;28;20061;-75
2022/07/21 01:47:48;;;;;;;4.18;3.40;;;;;;;19.49;100.00;101431.59;20912046;28;20048;-75
2022/07/21 01:57:50;;;;;;;4.47;3.20;;;;;;;19.48;100.00;101438.00;20977784;28;20048;-74
2022/07/21 02:07:52;;;;;;;3.50;2.90;;;;;;;19.40;100.00;101406.25;20974698;28;20098;-75
2022/07/21 02:17:53;;;;;;;4.05;3.20;;;;;;;19.31;100.00;101350.38;20975499;28;20060;-75
2022/07/21 02:27:55;;;;;;;4.07;3.20;;;;;;;19.46;100.00;101381.44;20973375;28;20562;-75
2022/07/21 02:37:57;;;;;;;4.05;3.20;;;;;;;19.46;100.00;101378.75;20974447;28;20052;-75
2022/07/21 02:48:05;;;;;;;3.55;3.15;;;;;;;19.47;100.00;101393.06;20963703;28;20055;-75
2022/07/21 02:58:10;;;;;;;3.50;2.88;;;;;;;19.37;100.00;101360.63;20872554;28;20049;-75
2022/07/21 03:08:11;;;;;;;;;;;;;;;19.45;100.00;101385.13;20890708;28;20079;-75
2022/07/21 03:18:13;;;;;;;4.47;3.00;;;;;;;19.31;100.00;101353.06;20888910;28;19946;-75
2022/07/21 03:28:14;;;;;;;3.45;3.00;;;;;;;19.44;100.00;101377.97;20888047;28;20140;-75
2022/07/21 03:38:16;;;;;;;3.97;3.10;;;;;;;19.19;100.00;101328.00;20879721;28;20049;-75
2022/07/21 03:48:18;;;;;;;3.40;2.95;;;;;;;19.18;100.00;101319.06;20786500;28;20056;-75
2022/07/21 03:58:19;;;;;;;3.38;2.97;;;;;;;19.18;100.00;101331.69;20802456;28;20045;-75
2022/07/21 04:08:21;;;;;;;3.20;2.70;;;;;;;19.43;100.00;101362.78;20802568;28;20494;-75
2022/07/21 04:18:22;;;;;;;3.20;2.90;;;;;;;19.43;100.00;101370.88;20801181;28;20052;-75
2022/07/21 04:28:24;;;;;;;3.33;2.78;;;;;;;19.39;100.00;101362.22;20801784;28;20252;-75
2022/07/21 04:38:26;;;;;;;3.47;2.88;;;;;;;19.42;100.00;101356.53;20790166;28;20107;-77
2022/07/21 04:48:27;;;;;;;3.25;2.90;;;;;;;19.41;100.00;101359.34;20956600;28;20165;-75
2022/07/21 04:58:29;;;;;;;3.13;2.85;;;;;;;19.41;100.00;101353.97;20840861;28;20107;-74
2022/07/21 05:08:30;;;;;;;4.78;4.13;;;;;;;19.40;100.00;101347.72;20858566;28;20045;-74
2022/07/21 05:18:32;;;;;;;6.65;3.88;;;;;;;19.45;100.00;101339.22;20882335;28;20053;-75
2022/07/21 05:28:33;;;;;;;7.20;4.20;;;;;;;19.48;100.00;101330.84;20910235;28;20406;-75
2022/07/21 05:38:36;;;;;;;5.60;4.47;;;;;;;19.50;100.00;101319.91;20907905;28;20044;-74
2022/07/21 05:48:38;;;;;;;5.88;4.20;;;;;;;19.51;100.00;101298.16;20895995;28;20045;-74
2022/07/21 05:58:39;;;;;;;5.57;5.07;;;;;;;19.53;100.00;101315.09;20885481;28;20170;-74
2022/07/21 06:08:42;;;;;;;6.88;5.65;;;;;;;19.55;100.00;101329.31;20875237;28;20045;-75
2022/07/21 06:18:44;;;;;;;6.82;5.47;;;;;;;19.56;100.00;101366.13;20863243;28;20048;-75
2022/07/21 06:28:45;;;;;;;7.88;6.35;;;;;;;19.52;100.00;101378.19;20857895;28;20146;-75
2022/07/21 06:38:47;;;;;;;7.20;5.43;;;;;;;19.58;100.00;101384.03;20865224;28;20075;-76
2022/07/21 06:48:48;;;;;;;6.82;5.68;;;;;;;19.58;100.00;101381.34;20861737;28;20064;-75
2022/07/21 06:58:50;;;;;;;5.80;5.00;;;;;;;19.57;100.00;101383.16;20862952;28;20556;-74
2022/07/21 07:08:52;;;;;;;6.80;5.07;;;;;;;19.55;100.00;101364.41;20859473;28;20103;-74
2022/07/21 07:18:53;;;;;;;5.78;4.93;;;;;;;19.56;100.00;101382.31;20875818;28;20494;-74
2022/07/21 07:28:56;;;;;;;5.90;5.30;;;;;;;19.55;100.00;101366.25;20859818;28;20049;-74
2022/07/21 07:38:58;;;;;;;6.82;5.35;;;;;;;19.58;100.00;101370.53;20874674;28;20055;-74
2022/07/21 07:49:00;;;;;;;6.15;5.55;;;;;;;19.51;100.00;101348.59;20847158;28;20037;-74
2022/07/21 07:59:13;;;;;;;6.10;5.50;;;;;;;19.59;100.00;101356.03;20843756;28;20053;-73
2022/07/21 08:09:15;;;;;;;6.45;5.85;;;;;;;19.59;100.00;101345.25;20844012;28;20045;-74
2022/07/21 08:19:16;;;;;;;7.30;6.60;;;;;;;19.70;100.00;101358.63;20836691;28;20061;-74
2022/07/21 08:29:18;;;;;;;8.02;7.07;;;;;;;19.74;100.00;101349.25;20822966;28;20474;-75
2022/07/21 08:39:19;;;;;;;8.23;7.40;;;;;;;19.79;100.00;101351.56;20872278;28;20053;-74
2022/07/21 08:49:22;;;;;;;7.95;7.15;;;;;;;19.62;100.00;101317.94;20876807;28;20133;-74
2022/07/21 08:59:23;;;;;;;7.80;7.00;;;;;;;19.81;100.00;101350.41;20841087;28;20432;-74
2022/07/21 09:09:33;;;;;;;8.55;7.68;;;;;;;19.79;100.00;101352.41;20829947;28;20137;-74
2022/07/21 09:19:38;;;;;;;8.93;6.55;;;;;;;19.78;100.00;101356.09;20828886;28;20049;-74
2022/07/21 09:29:48;;;;;;;8.05;7.25;;;;;;;19.61;100.00;101335.16;20821768;28;20041;-74
2022/07/21 09:39:50;;;;;;;8.85;7.95;;;;;;;19.76;100.00;101362.63;20918001;28;20048;-74
2022/07/21 09:49:52;;;;;;;8.02;7.22;;;;;;;19.76;100.00;101365.34;20901898;28;20049;-73
2022/07/21 10:00:17;;;;;;;8.52;7.72;;;;;;;19.59;100.00;101340.66;20874063;28;20052;-73
2022/07/21 10:10:20;;;;;;;8.07;7.28;;;;;;;19.75;100.00;101383.38;20833096;28;20502;-74
2022/07/21 10:20:34;;;;;;;8.35;7.55;;;;;;;19.74;100.00;101373.56;20860704;28;20551;-73
2022/07/21 10:30:42;;;;;;;7.95;7.15;;;;;;;19.65;100.00;101364.44;20874424;28;20505;-73
2022/07/21 10:40:43;;;;;;;8.80;7.93;;;;;;;19.73;100.00;101393.47;20882046;28;20667;-73
2022/07/21 10:50:50;;;;;;;9.45;8.52;;;;;;;19.74;100.00;101381.66;20888629;28;20452;-73
2022/07/21 11:00:57;;;;;;;9.25;8.25;;;;;;;19.74;100.00;101387.06;20864300;28;20065;-74
2022/07/21 11:11:20;;;;;;;8.75;7.95;;;;;;;19.76;100.00;101382.38;20857678;28;20073;-74
2022/07/21 11:21:22;;;;;;;9.73;8.80;;;;;;;19.62;100.00;101347.66;20873176;28;20045;-73
2022/07/21 11:31:24;;;;;;;9.20;8.30;;;;;;;19.77;100.00;101370.59;20894603;28;20049;-73
2022/07/21 11:41:26;;;;;;;10.18;9.13;;;;;;;19.76;100.00;101401.31;20858793;28;20084;-73
2022/07/21 11:51:27;;;;;;;9.70;8.77;;;;;;;19.65;100.00;101394.13;20862897;28;20521;-74
2022/07/21 12:01:29;;;;;;;10.13;9.02;;;;;;;19.75;100.00;101387.94;20752981;28;20486;-73
2022/07/21 12:11:36;;;;;;;9.32;8.45;;;;;;;19.67;100.00;101385.91;20759216;28;20064;-74
2022/07/21 12:21:51;;;;;;;9.32;8.43;;;;;;;19.73;100.00;101374.56;20770357;28;20560;-73
2022/07/21 12:31:53;;;;;;;9.60;8.57;;;;;;;19.69;100.00;101370.44;20824994;28;20739;-73
2022/07/21 12:41:56;;;;;;;8.98;8.07;;;;;;;19.65;100.00;101360.88;20845566;28;20053;-74
2022/07/21 12:51:58;;;;;;;9.15;8.25;;;;;;;19.77;100.00;101394.91;20860309;28;20131;-74
2022/07/21 13:01:59;;;;;;;8.95;8.05;;;;;;;19.73;100.00;101388.06;20917763;28;20086;-74
2022/07/21 13:12:01;;;;;;;9.20;8.40;;;;;;;19.78;100.00;101383.09;20890201;28;20056;-73
2022/07/21 13:22:03;;;;;;;9.57;8.57;;;;;;;19.64;100.00;101348.38;20843073;28;20068;-73
2022/07/21 13:32:06;;;;;;;8.45;7.55;;;;;;;19.82;100.00;101364.78;20848580;28;20090;-73
2022/07/21 13:42:08;;;;;;;8.25;7.43;;;;;;;19.82;100.00;101368.31;20888039;28;20077;-73
2022/07/21 13:52:32;;;;;;;7.45;6.68;;;;;;;19.75;100.00;101364.47;20838403;28;20064;-73
2022/07/21 14:02:34;;;;;;;7.78;7.05;;;;;;;19.83;100.00;101375.44;20847008;28;20650;-74
2022/07/21 14:12:36;;;;;;;7.35;6.63;;;;;;;19.84;100.00;101387.94;20855567;28;20048;-74
2022/07/21 14:22:43;;;;;;;7.25;6.55;;;;;;;19.84;100.00;101390.66;20864738;28;21006;-74
2022/07/21 14:32:46;;;;;;;6.55;5.95;;;;;;;19.67;100.00;101373.28;20859425;28;20609;-73
2022/07/21 14:42:48;;;;;;;6.30;5.70;;;;;;;19.82;100.00;101389.94;20858658;28;20145;-74
2022/07/21 14:52:50;;;;;;;5.85;5.35;;;;;;;19.81;100.00;101401.75;20830087;28;20053;-74
2022/07/21 15:02:53;;;;;;;6.13;5.53;;;;;;;19.79;100.00;101395.63;20761380;28;20077;-74
2022/07/21 15:12:54;;;;;;;5.93;5.35;;;;;;;19.73;100.00;101395.34;20759405;28;20747;-75
2022/07/21 15:22:56;;;;;;;5.70;5.10;;;;;;;19.78;100.00;101399.31;20841129;28;20055;-76
2022/07/21 15:32:58;;;;;;;5.75;5.22;;;;;;;19.61;100.00;101375.66;20879624;28;20486;-75
2022/07/21 15:43:00;;;;;;;4.88;4.43;;;;;;;19.79;100.00;101405.59;20857295;28;20059;-75
2022/07/21 15:53:02;;;;;;;5.38;4.88;;;;;;;19.78;100.00;101395.78;20852354;28;20048;-76
2022/07/21 16:03:04;;;;;;;5.32;4.82;;;;;;;19.79;100.00;101409.13;20848992;28;20536;-74
2022/07/21 16:13:06;;;;;;;5.35;4.68;;;;;;;19.71;100.00;101393.63;20835712;28;20072;-75
2022/07/21 16:23:07;;;;;;;6.78;5.60;;;;;;;19.80;100.00;101407.28;20834531;28;20075;-76
2022/07/21 16:33:09;;;;;;;9.50;7.25;;;;;;;19.81;100.00;101407.13;20818874;28;20115;-76
2022/07/21 16:43:11;;;;;;;8.10;5.47;;;;;;;19.75;100.00;101404.16;20828078;28;20044;-76
2022/07/21 16:53:12;;;;;;;8.13;6.53;;;;;;;19.80;100.00;101424.34;20832934;28;20154;-75
2022/07/21 17:03:14;;;;;;;11.30;5.63;;;;;;;19.81;100.00;101431.47;20828995;28;20410;-75
2022/07/21 17:13:17;;;;;;;11.82;5.93;;;;;;;19.80;100.00;101431.63;20770341;28;20053;-74
2022/07/21 17:23:19;;;;;;;9.15;5.30;;;;;;;19.79;100.00;101438.84;20766967;28;20096;-75
2022/07/21 17:33:20;;;;;;;7.00;5.20;;;;;;;19.73;100.00;101433.16;20832163;28;20516;-77
2022/07/21 17:43:22;;;;;;;6.22;4.40;;;;;;;19.78;100.00;101453.34;20814221;28;20494;-74
2022/07/21 17:53:23;;;;;;;6.63;3.92;;;;;;;19.78;100.00;101466.00;20819577;28;20037;-75
2022/07/21 18:03:25;;;;;;;5.32;4.10;;;;;;;19.78;100.00;101474.97;20855088;28;20059;-73
2022/07/21 18:13:27;;;;;;;7.15;3.92;;;;;;;19.80;100.00;101475.69;20848991;28;20166;-75
2022/07/21 18:23:28;;;;;;;6.38;4.32;;;;;;;19.79;100.00;101487.47;20917041;28;20482;-75
2022/07/21 18:33:30;;;;;;;4.25;3.58;;;;;;;19.77;100.00;101496.72;20973492;28;20467;-75
2022/07/21 18:43:31;;;;;;;5.82;4.45;;;;;;;19.76;100.00;101527.44;20973694;28;20084;-78
2022/07/21 18:53:33;;;;;;;4.20;3.72;;;;;;;19.70;100.00;101531.50;20975233;28;20060;-75
2022/07/21 19:03:35;;;;;;;4.80;3.75;;;;;;;19.71;100.00;101550.31;20972840;28;20044;-75
2022/07/21 19:13:36;;;;;;;4.32;3.55;;;;;;;19.70;100.00;101563.94;20972318;28;20083;-74
2022/07/21 19:23:38;;;;;;;4.93;3.60;;;;;;;19.69;100.00;101575.72;20963385;28;20501;-74
2022/07/21 19:33:40;;;;;;;3.85;3.10;;;;;;;19.68;100.00;101592.91;20968370;28;20118;-75
2022/07/21 19:43:43;;;;;;;3.33;3.03;;;;;;;19.66;100.00;101595.72;20969601;28;20044;-74
2022/07/21 19:53:44;;;;;;;3.63;2.72;;;;;;;19.65;100.00;101620.19;20968701;28;20522;-75
2022/07/21 20:03:46;;;;;;;2.70;2.50;;;;;;;19.64;100.00;101627.41;20967972;28;20045;-75
2022/07/21 20:13:47;;;;;;;3.30;2.40;;;;;;;19.63;100.00;101633.81;20965445;28;20044;-74
2022/07/21 20:23:50;;;;;;;3.25;2.60;;;;;;;19.62;100.00;101631.25;20957086;28;20098;-75
2022/07/21 20:33:52;;;;;;;3.47;2.70;;;;;;;19.61;100.00;101629.53;20963560;28;20508;-74
2022/07/21 20:43:54;;;;;;;3.67;2.83;;;;;;;19.61;100.00;101645.75;20961295;28;20386;-75
2022/07/21 20:53:57;;;;;;;2.40;1.90;;;;;;;19.60;100.00;101644.03;20968521;28;20047;-75
2022/07/21 21:03:58;;;;;;;1.90;1.70;;;;;;;19.46;100.00;101632.56;20964576;28;20052;-76
2022/07/21 21:14:00;;;;;;;1.65;1.55;;;;;;;19.58;100.00;101660.34;20944494;28;20051;-75
2022/07/21 21:24:02;;;;;;;2.10;1.90;;;;;;;19.34;100.00;101625.47;20953363;28;20059;-75
2022/07/21 21:34:03;;;;;;;2.17;1.80;;;;;;;19.56;100.00;101665.03;20960402;28;20143;-75
2022/07/21 21:44:05;;;;;;;1.77;1.58;;;;;;;19.51;100.00;101673.53;20967347;28;20094;-75
2022/07/21 21:54:07;;;;;;;1.85;1.70;;;;;;;19.55;100.00;101690.31;20964629;28;20041;-76
2022/07/21 22:04:08;;;;;;;1.85;1.60;;;;;;;19.50;100.00;101684.47;20975281;28;20052;-74
2022/07/21 22:14:10;;;;;;;1.40;1.30;;;;;;;19.36;100.00;101672.09;20965539;28;20052;-75
2022/07/21 22:24:12;;;;;;;2.05;1.45;;;;;;;19.53;100.00;101703.09;20975705;28;20070;-75
2022/07/21 22:34:13;;;;;;;1.92;1.48;;;;;;;19.41;100.00;101683.38;20965623;28;20557;-75
2022/07/21 22:44:15;;;;;;;1.83;1.38;;;;;;;19.50;100.00;101717.72;20971181;28;22193;-74
2022/07/21 22:54:17;;;;;;;1.58;1.20;;;;;;;19.42;100.00;101717.47;20972623;28;20128;-75
2022/07/21 23:04:19;;;;;;;1.38;1.25;;;;;;;19.51;100.00;101727.56;20971995;28;20064;-75
2022/07/21 23:14:20;;;;;;;1.48;1.00;;;;;;;19.50;100.00;101725.84;20959000;28;20048;-74
2022/07/21 23:24:22;;;;;;;1.35;1.23;;;;;;;19.36;100.00;101699.97;20969730;28;20114;-74
2022/07/21 23:34:23;;;;;;;1.73;1.20;;;;;;;19.48;100.00;101711.59;20971263;28;20471;-75
2022/07/21 23:44:25;;;;;;;1.65;1.00;;;;;;;19.48;100.00;101716.13;20970142;28;20045;-76
2022/07/21 23:54:27;;;;;;;1.13;0.88;;;;;;;19.46;100.00;101729.78;20966902;28;20062;-75
